sensor_id;sensor_type;location;lat;lon;timestamp;P1;durP1;ratioP1;P2;durP2;ratioP2
67712;SDS011;67640;55.784;49.138;2023-11-18T00:01:21;1.15;;;0.20;;
67712;SDS011;67640;55.784;49.138;2023-11-18T00:06:40;1.32;;;0.35;;
67712;SDS011;67640;55.784;49.138;2023-11-18T00:11:45;1.60;;;0.40;;
67712;SDS011;67640;55.784;49.138;2023-11-18T00:17:04;1.05;;;0.62;;
67712;SDS011;67640;55.784;49.138;2023-11-18T00:22:23;0.80;;;0.20;;
67712;SDS011;67640;55.784;49.138;2023-11-18T00:27:29;3.50;;;0.40;;
67712;SDS011;67640;55.784;49.138;2023-11-18T00:32:48;1.32;;;0.30;;
67712;SDS011;67640;55.784;49.138;2023-11-18T00:37:53;0.78;;;0.30;;
67712;SDS011;67640;55.784;49.138;2023-11-18T00:43:10;0.47;;;0.20;;
67712;SDS011;67640;55.784;49.138;2023-11-18T00:48:29;1.47;;;0.30;;
67712;SDS011;67640;55.784;49.138;2023-11-18T00:53:48;1.03;;;0.30;;
67712;SDS011;67640;55.784;49.138;2023-11-18T00:59:07;1.27;;;0.30;;
67712;SDS011;67640;55.784;49.138;2023-11-18T01:04:26;0.68;;;0.13;;
67712;SDS011;67640;55.784;49.138;2023-11-18T01:09:31;1.50;;;0.30;;
67712;SDS011;67640;55.784;49.138;2023-11-18T01:14:37;1.02;;;0.30;;
67712;SDS011;67640;55.784;49.138;2023-11-18T01:19:56;1.42;;;0.20;;
67712;SDS011;67640;55.784;49.138;2023-11-18T01:25:15;1.83;;;0.40;;
67712;SDS011;67640;55.784;49.138;2023-11-18T01:30:35;1.42;;;0.40;;
67712;SDS011;67640;55.784;49.138;2023-11-18T01:35:41;1.37;;;0.40;;
67712;SDS011;67640;55.784;49.138;2023-11-18T01:40:59;0.50;;;0.13;;
67712;SDS011;67640;55.784;49.138;2023-11-18T01:46:05;1.12;;;0.28;;
67712;SDS011;67640;55.784;49.138;2023-11-18T01:51:25;1.62;;;0.40;;
67712;SDS011;67640;55.784;49.138;2023-11-18T01:56:46;2.70;;;0.30;;
67712;SDS011;67640;55.784;49.138;2023-11-18T02:02:05;0.53;;;0.15;;
67712;SDS011;67640;55.784;49.138;2023-11-18T02:07:23;0.70;;;0.10;;
67712;SDS011;67640;55.784;49.138;2023-11-18T02:17:49;1.22;;;0.20;;
67712;SDS011;67640;55.784;49.138;2023-11-18T02:22:54;1.00;;;0.20;;
67712;SDS011;67640;55.784;49.138;2023-11-18T02:28:00;1.13;;;0.30;;
67712;SDS011;67640;55.784;49.138;2023-11-18T02:33:22;0.93;;;0.25;;
67712;SDS011;67640;55.784;49.138;2023-11-18T02:38:43;0.60;;;0.20;;
67712;SDS011;67640;55.784;49.138;2023-11-18T02:44:04;2.00;;;0.40;;
67712;SDS011;67640;55.784;49.138;2023-11-18T02:49:25;1.27;;;0.20;;
67712;SDS011;67640;55.784;49.138;2023-11-18T02:54:44;1.07;;;0.20;;
67712;SDS011;67640;55.784;49.138;2023-11-18T03:00:04;0.90;;;0.20;;
67712;SDS011;67640;55.784;49.138;2023-11-18T03:05:23;1.37;;;0.20;;
67712;SDS011;67640;55.784;49.138;2023-11-18T03:10:28;0.35;;;0.10;;
67712;SDS011;67640;55.784;49.138;2023-11-18T03:15:33;0.68;;;0.10;;
67712;SDS011;67640;55.784;49.138;2023-11-18T03:20:38;2.60;;;0.27;;
67712;SDS011;67640;55.784;49.138;2023-11-18T03:25:55;1.57;;;0.10;;
67712;SDS011;67640;55.784;49.138;2023-11-18T03:31:00;1.25;;;0.37;;
67712;SDS011;67640;55.784;49.138;2023-11-18T03:36:05;1.03;;;0.20;;
67712;SDS011;67640;55.784;49.138;2023-11-18T03:41:20;0.93;;;0.20;;
67712;SDS011;67640;55.784;49.138;2023-11-18T03:46:26;0.35;;;0.20;;
67712;SDS011;67640;55.784;49.138;2023-11-18T03:51:31;0.50;;;0.15;;
67712;SDS011;67640;55.784;49.138;2023-11-18T03:56:52;1.17;;;0.30;;
67712;SDS011;67640;55.784;49.138;2023-11-18T04:02:10;0.70;;;0.10;;
67712;SDS011;67640;55.784;49.138;2023-11-18T04:07:15;0.95;;;0.10;;
67712;SDS011;67640;55.784;49.138;2023-11-18T04:12:34;0.20;;;0.03;;
67712;SDS011;67640;55.784;49.138;2023-11-18T04:17:53;2.80;;;0.30;;
67712;SDS011;67640;55.784;49.138;2023-11-18T04:23:26;1.25;;;0.30;;
67712;SDS011;67640;55.784;49.138;2023-11-18T04:28:31;5.40;;;0.50;;
67712;SDS011;67640;55.784;49.138;2023-11-18T04:33:36;2.30;;;0.47;;
67712;SDS011;67640;55.784;49.138;2023-11-18T04:38:55;3.15;;;0.30;;
67712;SDS011;67640;55.784;49.138;2023-11-18T04:44:00;6.22;;;0.30;;
67712;SDS011;67640;55.784;49.138;2023-11-18T04:49:19;3.65;;;0.50;;
67712;SDS011;67640;55.784;49.138;2023-11-18T04:54:25;0.53;;;0.10;;
67712;SDS011;67640;55.784;49.138;2023-11-18T04:59:44;1.62;;;0.37;;
67712;SDS011;67640;55.784;49.138;2023-11-18T05:05:03;7.20;;;0.50;;
67712;SDS011;67640;55.784;49.138;2023-11-18T05:10:10;2.40;;;0.68;;
67712;SDS011;67640;55.784;49.138;2023-11-18T05:15:15;0.95;;;0.28;;
67712;SDS011;67640;55.784;49.138;2023-11-18T05:20:33;2.72;;;0.33;;
67712;SDS011;67640;55.784;49.138;2023-11-18T05:31:17;1.67;;;0.35;;
67712;SDS011;67640;55.784;49.138;2023-11-18T05:36:36;5.57;;;0.60;;
67712;SDS011;67640;55.784;49.138;2023-11-18T05:41:55;1.60;;;0.40;;
67712;SDS011;67640;55.784;49.138;2023-11-18T05:47:01;2.22;;;0.40;;
67712;SDS011;67640;55.784;49.138;2023-11-18T05:52:21;8.73;;;0.50;;
67712;SDS011;67640;55.784;49.138;2023-11-18T05:57:35;4.15;;;0.50;;
67712;SDS011;67640;55.784;49.138;2023-11-18T06:02:53;22.13;;;0.93;;
67712;SDS011;67640;55.784;49.138;2023-11-18T06:07:59;2.20;;;0.40;;
67712;SDS011;67640;55.784;49.138;2023-11-18T06:13:18;3.77;;;0.30;;
67712;SDS011;67640;55.784;49.138;2023-11-18T06:18:37;1.52;;;0.50;;
67712;SDS011;67640;55.784;49.138;2023-11-18T06:23:42;4.47;;;0.60;;
67712;SDS011;67640;55.784;49.138;2023-11-18T06:29:01;3.08;;;0.75;;
67712;SDS011;67640;55.784;49.138;2023-11-18T06:34:06;1.60;;;0.50;;
67712;SDS011;67640;55.784;49.138;2023-11-18T06:39:25;6.67;;;0.95;;
67712;SDS011;67640;55.784;49.138;2023-11-18T06:44:44;2.20;;;0.62;;
67712;SDS011;67640;55.784;49.138;2023-11-18T06:49:49;3.58;;;0.40;;
67712;SDS011;67640;55.784;49.138;2023-11-18T06:55:09;3.75;;;0.80;;
67712;SDS011;67640;55.784;49.138;2023-11-18T07:00:14;4.30;;;0.90;;
67712;SDS011;67640;55.784;49.138;2023-11-18T07:05:33;3.83;;;0.43;;
67712;SDS011;67640;55.784;49.138;2023-11-18T07:10:38;4.65;;;0.70;;
67712;SDS011;67640;55.784;49.138;2023-11-18T07:15:43;9.10;;;0.60;;
67712;SDS011;67640;55.784;49.138;2023-11-18T07:21:02;5.17;;;0.90;;
67712;SDS011;67640;55.784;49.138;2023-11-18T07:26:23;4.58;;;0.70;;
67712;SDS011;67640;55.784;49.138;2023-11-18T07:31:47;5.60;;;0.75;;
67712;SDS011;67640;55.784;49.138;2023-11-18T07:36:52;4.80;;;0.70;;
67712;SDS011;67640;55.784;49.138;2023-11-18T07:42:11;3.85;;;0.70;;
67712;SDS011;67640;55.784;49.138;2023-11-18T07:47:31;6.00;;;0.97;;
67712;SDS011;67640;55.784;49.138;2023-11-18T07:53:13;10.10;;;1.47;;
67712;SDS011;67640;55.784;49.138;2023-11-18T07:58:18;3.17;;;0.90;;
67712;SDS011;67640;55.784;49.138;2023-11-18T08:03:22;3.00;;;0.70;;
67712;SDS011;67640;55.784;49.138;2023-11-18T08:08:41;5.55;;;1.00;;
67712;SDS011;67640;55.784;49.138;2023-11-18T08:13:46;8.20;;;0.98;;
67712;SDS011;67640;55.784;49.138;2023-11-18T08:19:10;6.67;;;1.30;;
67712;SDS011;67640;55.784;49.138;2023-11-18T08:24:34;4.55;;;1.10;;
67712;SDS011;67640;55.784;49.138;2023-11-18T08:29:53;4.20;;;1.53;;
67712;SDS011;67640;55.784;49.138;2023-11-18T08:35:12;8.65;;;0.90;;
67712;SDS011;67640;55.784;49.138;2023-11-18T08:40:31;4.08;;;0.90;;
67712;SDS011;67640;55.784;49.138;2023-11-18T08:45:36;4.80;;;1.00;;
67712;SDS011;67640;55.784;49.138;2023-11-18T08:50:41;4.17;;;1.52;;
67712;SDS011;67640;55.784;49.138;2023-11-18T08:55:59;11.25;;;1.62;;
67712;SDS011;67640;55.784;49.138;2023-11-18T09:01:04;8.13;;;1.30;;
67712;SDS011;67640;55.784;49.138;2023-11-18T09:06:11;6.40;;;1.65;;
67712;SDS011;67640;55.784;49.138;2023-11-18T09:11:30;6.15;;;1.22;;
67712;SDS011;67640;55.784;49.138;2023-11-18T09:16:49;9.30;;;1.62;;
67712;SDS011;67640;55.784;49.138;2023-11-18T09:22:09;4.67;;;1.40;;
67712;SDS011;67640;55.784;49.138;2023-11-18T09:27:14;9.27;;;1.40;;
67712;SDS011;67640;55.784;49.138;2023-11-18T09:32:18;6.67;;;1.72;;
67712;SDS011;67640;55.784;49.138;2023-11-18T09:37:50;3.42;;;1.22;;
67712;SDS011;67640;55.784;49.138;2023-11-18T09:42:56;14.13;;;2.20;;
67712;SDS011;67640;55.784;49.138;2023-11-18T09:48:00;8.43;;;2.58;;
67712;SDS011;67640;55.784;49.138;2023-11-18T09:53:34;6.35;;;2.00;;
67712;SDS011;67640;55.784;49.138;2023-11-18T09:58:44;7.45;;;1.70;;
67712;SDS011;67640;55.784;49.138;2023-11-18T10:04:12;4.33;;;1.67;;
67712;SDS011;67640;55.784;49.138;2023-11-18T10:09:46;6.33;;;1.60;;
67712;SDS011;67640;55.784;49.138;2023-11-18T10:14:52;5.83;;;2.15;;
67712;SDS011;67640;55.784;49.138;2023-11-18T10:20:11;9.85;;;2.00;;
67712;SDS011;67640;55.784;49.138;2023-11-18T10:25:23;7.30;;;2.20;;
67712;SDS011;67640;55.784;49.138;2023-11-18T10:41:55;5.37;;;1.52;;
67712;SDS011;67640;55.784;49.138;2023-11-18T10:47:03;4.55;;;1.62;;
67712;SDS011;67640;55.784;49.138;2023-11-18T10:52:08;6.85;;;2.08;;
67712;SDS011;67640;55.784;49.138;2023-11-18T10:57:27;6.85;;;2.30;;
67712;SDS011;67640;55.784;49.138;2023-11-18T11:02:32;12.97;;;1.73;;
67712;SDS011;67640;55.784;49.138;2023-11-18T11:07:51;10.85;;;2.08;;
67712;SDS011;67640;55.784;49.138;2023-11-18T11:13:13;14.43;;;1.77;;
67712;SDS011;67640;55.784;49.138;2023-11-18T11:18:20;8.67;;;1.57;;
67712;SDS011;67640;55.784;49.138;2023-11-18T11:29:22;14.80;;;1.60;;
67712;SDS011;67640;55.784;49.138;2023-11-18T11:34:40;4.87;;;1.30;;
67712;SDS011;67640;55.784;49.138;2023-11-18T11:40:04;5.92;;;1.62;;
67712;SDS011;67640;55.784;49.138;2023-11-18T11:45:24;11.20;;;2.20;;
67712;SDS011;67640;55.784;49.138;2023-11-18T11:50:45;9.90;;;2.12;;
67712;SDS011;67640;55.784;49.138;2023-11-18T11:56:05;12.65;;;2.27;;
67712;SDS011;67640;55.784;49.138;2023-11-18T12:01:25;10.43;;;2.37;;
67712;SDS011;67640;55.784;49.138;2023-11-18T12:06:33;9.10;;;3.08;;
67712;SDS011;67640;55.784;49.138;2023-11-18T12:11:41;8.63;;;2.40;;
67712;SDS011;67640;55.784;49.138;2023-11-18T12:22:26;7.10;;;2.25;;
67712;SDS011;67640;55.784;49.138;2023-11-18T12:33:11;10.63;;;3.00;;
67712;SDS011;67640;55.784;49.138;2023-11-18T12:54:54;3.77;;;0.98;;
67712;SDS011;67640;55.784;49.138;2023-11-18T12:59:59;7.20;;;1.80;;
67712;SDS011;67640;55.784;49.138;2023-11-18T13:05:07;7.92;;;1.62;;
67712;SDS011;67640;55.784;49.138;2023-11-18T13:10:27;4.80;;;1.52;;
67712;SDS011;67640;55.784;49.138;2023-11-18T13:15:46;13.17;;;1.57;;
67712;SDS011;67640;55.784;49.138;2023-11-18T13:21:05;14.35;;;1.60;;
67712;SDS011;67640;55.784;49.138;2023-11-18T13:26:24;5.87;;;1.73;;
67712;SDS011;67640;55.784;49.138;2023-11-18T13:31:43;7.55;;;2.12;;
67712;SDS011;67640;55.784;49.138;2023-11-18T13:36:49;11.08;;;2.05;;
67712;SDS011;67640;55.784;49.138;2023-11-18T13:47:34;6.40;;;1.65;;
67712;SDS011;67640;55.784;49.138;2023-11-18T13:52:53;8.38;;;1.75;;
67712;SDS011;67640;55.784;49.138;2023-11-18T13:57:58;4.20;;;1.83;;
67712;SDS011;67640;55.784;49.138;2023-11-18T14:03:38;13.62;;;2.40;;
67712;SDS011;67640;55.784;49.138;2023-11-18T14:08:57;10.23;;;2.37;;
67712;SDS011;67640;55.784;49.138;2023-11-18T14:14:01;12.00;;;2.50;;
67712;SDS011;67640;55.784;49.138;2023-11-18T14:19:21;9.40;;;2.33;;
67712;SDS011;67640;55.784;49.138;2023-11-18T14:24:40;14.57;;;3.27;;
67712;SDS011;67640;55.784;49.138;2023-11-18T14:30:01;15.35;;;3.95;;
67712;SDS011;67640;55.784;49.138;2023-11-18T14:35:08;10.60;;;3.33;;
67712;SDS011;67640;55.784;49.138;2023-11-18T14:40:27;13.67;;;3.33;;
67712;SDS011;67640;55.784;49.138;2023-11-18T14:45:32;19.80;;;3.55;;
67712;SDS011;67640;55.784;49.138;2023-11-18T14:50:38;12.53;;;3.12;;
67712;SDS011;67640;55.784;49.138;2023-11-18T14:55:57;9.77;;;2.70;;
67712;SDS011;67640;55.784;49.138;2023-11-18T15:01:16;10.28;;;3.27;;
67712;SDS011;67640;55.784;49.138;2023-11-18T15:06:35;13.80;;;3.33;;
67712;SDS011;67640;55.784;49.138;2023-11-18T15:11:41;17.23;;;4.40;;
67712;SDS011;67640;55.784;49.138;2023-11-18T15:17:16;15.68;;;4.40;;
67712;SDS011;67640;55.784;49.138;2023-11-18T15:22:35;15.60;;;4.47;;
67712;SDS011;67640;55.784;49.138;2023-11-18T15:27:54;25.17;;;5.35;;
67712;SDS011;67640;55.784;49.138;2023-11-18T15:32:59;19.80;;;4.80;;
67712;SDS011;67640;55.784;49.138;2023-11-18T15:38:04;17.00;;;5.25;;
67712;SDS011;67640;55.784;49.138;2023-11-18T15:43:27;13.28;;;4.40;;
67712;SDS011;67640;55.784;49.138;2023-11-18T15:48:32;16.55;;;4.83;;
67712;SDS011;67640;55.784;49.138;2023-11-18T15:53:37;21.55;;;5.15;;
67712;SDS011;67640;55.784;49.138;2023-11-18T15:58:56;13.50;;;4.15;;
67712;SDS011;67640;55.784;49.138;2023-11-18T16:04:15;12.63;;;4.33;;
67712;SDS011;67640;55.784;49.138;2023-11-18T16:09:47;15.23;;;4.47;;
67712;SDS011;67640;55.784;49.138;2023-11-18T16:14:52;17.35;;;5.42;;
67712;SDS011;67640;55.784;49.138;2023-11-18T16:20:11;15.10;;;4.67;;
67712;SDS011;67640;55.784;49.138;2023-11-18T16:25:31;21.07;;;4.45;;
67712;SDS011;67640;55.784;49.138;2023-11-18T16:30:37;20.70;;;4.87;;
67712;SDS011;67640;55.784;49.138;2023-11-18T16:35:56;13.53;;;3.80;;
67712;SDS011;67640;55.784;49.138;2023-11-18T16:41:01;10.20;;;3.30;;
67712;SDS011;67640;55.784;49.138;2023-11-18T16:46:28;12.85;;;3.75;;
67712;SDS011;67640;55.784;49.138;2023-11-18T16:51:33;9.37;;;3.03;;
67712;SDS011;67640;55.784;49.138;2023-11-18T16:56:47;15.30;;;3.75;;
67712;SDS011;67640;55.784;49.138;2023-11-18T17:02:06;15.43;;;4.10;;
67712;SDS011;67640;55.784;49.138;2023-11-18T17:07:25;11.10;;;3.67;;
67712;SDS011;67640;55.784;49.138;2023-11-18T17:12:45;13.98;;;3.37;;
67712;SDS011;67640;55.784;49.138;2023-11-18T17:17:51;12.30;;;3.27;;
67712;SDS011;67640;55.784;49.138;2023-11-18T17:23:10;12.23;;;3.27;;
67712;SDS011;67640;55.784;49.138;2023-11-18T17:28:16;13.32;;;3.52;;
67712;SDS011;67640;55.784;49.138;2023-11-18T17:33:34;12.10;;;3.73;;
67712;SDS011;67640;55.784;49.138;2023-11-18T17:39:00;12.82;;;3.70;;
67712;SDS011;67640;55.784;49.138;2023-11-18T17:44:20;15.68;;;3.70;;
67712;SDS011;67640;55.784;49.138;2023-11-18T17:49:39;11.43;;;3.70;;
67712;SDS011;67640;55.784;49.138;2023-11-18T17:54:44;11.33;;;3.33;;
67712;SDS011;67640;55.784;49.138;2023-11-18T18:00:03;12.13;;;3.50;;
67712;SDS011;67640;55.784;49.138;2023-11-18T18:05:09;8.75;;;3.35;;
67712;SDS011;67640;55.784;49.138;2023-11-18T18:10:28;13.50;;;3.75;;
67712;SDS011;67640;55.784;49.138;2023-11-18T18:15:33;11.18;;;3.37;;
67712;SDS011;67640;55.784;49.138;2023-11-18T18:20:54;10.63;;;3.07;;
67712;SDS011;67640;55.784;49.138;2023-11-18T18:25:59;18.17;;;3.62;;
67712;SDS011;67640;55.784;49.138;2023-11-18T18:31:18;9.18;;;2.75;;
67712;SDS011;67640;55.784;49.138;2023-11-18T18:36:37;13.27;;;3.63;;
67712;SDS011;67640;55.784;49.138;2023-11-18T18:41:56;10.75;;;3.40;;
67712;SDS011;67640;55.784;49.138;2023-11-18T18:47:15;13.70;;;3.10;;
67712;SDS011;67640;55.784;49.138;2023-11-18T18:52:22;11.28;;;3.33;;
67712;SDS011;67640;55.784;49.138;2023-11-18T18:57:42;18.07;;;3.62;;
67712;SDS011;67640;55.784;49.138;2023-11-18T19:02:47;17.60;;;3.80;;
67712;SDS011;67640;55.784;49.138;2023-11-18T19:08:06;18.05;;;3.92;;
67712;SDS011;67640;55.784;49.138;2023-11-18T19:13:11;12.70;;;3.35;;
67712;SDS011;67640;55.784;49.138;2023-11-18T19:18:30;11.10;;;3.37;;
67712;SDS011;67640;55.784;49.138;2023-11-18T19:23:50;12.75;;;3.08;;
67712;SDS011;67640;55.784;49.138;2023-11-18T19:29:08;9.00;;;3.10;;
67712;SDS011;67640;55.784;49.138;2023-11-18T19:34:13;7.55;;;2.47;;
67712;SDS011;67640;55.784;49.138;2023-11-18T19:39:32;11.80;;;2.98;;
67712;SDS011;67640;55.784;49.138;2023-11-18T19:44:38;12.07;;;3.07;;
67712;SDS011;67640;55.784;49.138;2023-11-18T19:49:57;11.10;;;3.25;;
67712;SDS011;67640;55.784;49.138;2023-11-18T19:55:16;13.58;;;2.90;;
67712;SDS011;67640;55.784;49.138;2023-11-18T20:00:22;9.40;;;2.67;;
67712;SDS011;67640;55.784;49.138;2023-11-18T20:05:40;12.53;;;2.87;;
67712;SDS011;67640;55.784;49.138;2023-11-18T20:10:45;9.53;;;2.70;;
67712;SDS011;67640;55.784;49.138;2023-11-18T20:15:51;13.10;;;2.83;;
67712;SDS011;67640;55.784;49.138;2023-11-18T20:21:10;9.63;;;2.60;;
67712;SDS011;67640;55.784;49.138;2023-11-18T20:26:29;9.88;;;2.22;;
67712;SDS011;67640;55.784;49.138;2023-11-18T20:31:51;11.03;;;2.62;;
67712;SDS011;67640;55.784;49.138;2023-11-18T20:36:56;12.43;;;2.17;;
67712;SDS011;67640;55.784;49.138;2023-11-18T20:42:02;12.50;;;2.62;;
67712;SDS011;67640;55.784;49.138;2023-11-18T20:47:21;7.63;;;2.20;;
67712;SDS011;67640;55.784;49.138;2023-11-18T20:52:40;8.00;;;2.00;;
67712;SDS011;67640;55.784;49.138;2023-11-18T20:57:46;9.15;;;2.17;;
67712;SDS011;67640;55.784;49.138;2023-11-18T21:02:51;6.17;;;2.12;;
67712;SDS011;67640;55.784;49.138;2023-11-18T21:07:57;7.72;;;1.60;;
67712;SDS011;67640;55.784;49.138;2023-11-18T21:13:16;7.80;;;2.12;;
67712;SDS011;67640;55.784;49.138;2023-11-18T21:18:35;11.03;;;2.10;;
67712;SDS011;67640;55.784;49.138;2023-11-18T21:23:40;9.97;;;2.30;;
67712;SDS011;67640;55.784;49.138;2023-11-18T21:28:59;10.13;;;2.10;;
67712;SDS011;67640;55.784;49.138;2023-11-18T21:34:18;8.40;;;2.40;;
67712;SDS011;67640;55.784;49.138;2023-11-18T21:39:38;7.37;;;1.87;;
67712;SDS011;67640;55.784;49.138;2023-11-18T21:44:57;7.83;;;2.10;;
67712;SDS011;67640;55.784;49.138;2023-11-18T21:50:02;9.60;;;2.30;;
67712;SDS011;67640;55.784;49.138;2023-11-18T21:55:22;8.60;;;2.00;;
67712;SDS011;67640;55.784;49.138;2023-11-18T22:00:32;7.67;;;1.77;;
67712;SDS011;67640;55.784;49.138;2023-11-18T22:05:37;9.23;;;1.98;;
67712;SDS011;67640;55.784;49.138;2023-11-18T22:10:56;6.70;;;1.80;;
67712;SDS011;67640;55.784;49.138;2023-11-18T22:16:02;10.20;;;2.33;;
67712;SDS011;67640;55.784;49.138;2023-11-18T22:21:21;12.85;;;2.90;;
67712;SDS011;67640;55.784;49.138;2023-11-18T22:26:26;7.15;;;2.27;;
67712;SDS011;67640;55.784;49.138;2023-11-18T22:31:32;6.07;;;1.90;;
67712;SDS011;67640;55.784;49.138;2023-11-18T22:36:51;7.58;;;1.85;;
67712;SDS011;67640;55.784;49.138;2023-11-18T22:41:57;7.37;;;2.08;;
67712;SDS011;67640;55.784;49.138;2023-11-18T22:47:16;9.18;;;2.20;;
67712;SDS011;67640;55.784;49.138;2023-11-18T22:52:21;9.88;;;2.35;;
67712;SDS011;67640;55.784;49.138;2023-11-18T22:57:38;9.68;;;2.30;;
67712;SDS011;67640;55.784;49.138;2023-11-18T23:02:43;9.93;;;2.60;;
67712;SDS011;67640;55.784;49.138;2023-11-18T23:08:02;9.15;;;2.08;;
67712;SDS011;67640;55.784;49.138;2023-11-18T23:13:21;8.73;;;2.00;;
67712;SDS011;67640;55.784;49.138;2023-11-18T23:18:26;9.00;;;2.00;;
67712;SDS011;67640;55.784;49.138;2023-11-18T23:23:45;13.03;;;2.75;;
67712;SDS011;67640;55.784;49.138;2023-11-18T23:29:05;7.50;;;2.13;;
67712;SDS011;67640;55.784;49.138;2023-11-18T23:34:10;11.35;;;2.45;;
67712;SDS011;67640;55.784;49.138;2023-11-18T23:39:29;9.73;;;2.35;;
67712;SDS011;67640;55.784;49.138;2023-11-18T23:44:35;7.70;;;2.10;;
67712;SDS011;67640;55.784;49.138;2023-11-18T23:49:41;10.35;;;2.35;;
67712;SDS011;67640;55.784;49.138;2023-11-18T23:54:58;9.43;;;2.10;;
